Time;durP1;ratioP1;P1;durP2;ratioP2;P2;SDS_P1;SDS_P2;PMS_P1;PMS_P2;Temp;Humidity;BMP_temperature;BMP_pressure;BME280_temperature;BME280_humidity;BME280_pressure;Samples;Min_cycle;Max_cycle;Signal;HPM_P1;HPM_P2
2022/05/01 00:01:43;;;;;;;;;;;;;;;14.03;44.26;101348.72;4984508;28;6999;-74
2022/05/01 00:04:09;;;;;;;;;;;;;;;13.95;44.33;101348.34;4985979;28;8059;-74
2022/05/01 00:06:35;;;;;;;;;;;;;;;13.85;45.34;101338.41;4983683;28;6999;-74
2022/05/01 00:09:04;;;;;;;;;;;;;;;13.77;45.21;101344.84;4984234;28;7196;-74
2022/05/01 00:11:30;;;;;;;;;;;;;;;13.67;45.65;101340.94;4979403;28;6892;-74
2022/05/01 00:13:57;;;;;;;;;;;;;;;13.59;44.81;101345.69;4982648;28;6815;-74
2022/05/01 00:16:24;;;;;;;;;;;;;;;13.48;45.05;101337.44;4977557;28;6804;-74
2022/05/01 00:18:50;;;;;;;;;;;;;;;13.40;45.21;101333.56;4983523;28;6796;-74
2022/05/01 00:21:15;;;;;;;;;;;;;;;13.31;45.31;101333.94;4983435;28;7827;-74
2022/05/01 00:23:41;;;;;;;;;;;;;;;13.23;46.18;101330.09;4982425;28;6799;-74
2022/05/01 00:26:08;;;;;;;;;;;;;;;13.13;46.56;101339.91;4978577;28;6999;-74
2022/05/01 00:28:36;;;;;;;;;;;;;;;13.04;46.54;101337.72;4997722;28;6799;-74
2022/05/01 00:31:05;;;;;;;;;;;;;;;12.97;46.87;101343.34;4977292;28;7283;-74
2022/05/01 00:36:25;;;;;;;;;;;;;;;12.81;47.27;101346.78;4983042;28;6812;-75
2022/05/01 00:38:55;;;;;;;;;;;;;;;12.75;46.73;101344.78;4984426;28;8004;-74
2022/05/01 00:41:21;;;;;;;;;;;;;;;12.70;47.46;101345.34;4977794;28;6796;-74
2022/05/01 00:44:05;;;;;;;;;;;;;;;12.68;47.20;101342.66;4976294;28;6811;-74
2022/05/01 00:46:33;;;;;;;;;;;;;;;12.67;47.34;101345.19;4980753;28;6923;-74
2022/05/01 00:49:01;;;;;;;;;;;;;;;12.69;47.78;101341.00;4981728;28;6819;-74
2022/05/01 00:51:54;;;;;;;;;;;;;;;12.70;47.85;101342.75;4981583;28;7110;-74
2022/05/01 00:54:28;;;;;;;;;;;;;;;12.71;47.84;101341.97;4975928;28;6836;-74
2022/05/01 00:56:57;;;;;;;;;;;;;;;12.70;47.89;101333.38;4975970;28;6811;-74
2022/05/01 00:59:23;;;;;;;;;;;;;;;12.72;48.08;101333.44;4982417;28;6824;-74
2022/05/01 01:01:51;;;;;;;;;;;;;;;12.72;48.58;101334.34;4977719;28;7210;-74
2022/05/01 01:04:17;;;;;;;;;;;;;;;12.72;47.76;101320.56;4976271;28;6811;-74
2022/05/01 01:06:43;;;;;;;;;;;;;;;12.71;47.83;101326.53;4998575;28;6891;-74
2022/05/01 01:09:10;;;;;;;;;;;;;;;12.70;48.10;101332.47;4968392;28;6808;-74
2022/05/01 01:11:38;;;;;;;;;;;;;;;12.67;48.82;101327.19;4981982;28;6964;-74
2022/05/01 01:14:05;;;;;;;;;;;;;;;12.61;48.78;101328.59;4976173;28;7446;-74
2022/05/01 01:16:36;;;;;;;;;;;;;;;12.57;48.35;101330.91;4999806;28;6984;-74
2022/05/01 01:19:07;;;;;;;;;;;;;;;12.51;48.42;101328.91;4979722;28;6808;-74
2022/05/01 01:21:35;;;;;;;;;;;;;;;12.47;48.55;101332.13;4981039;28;6976;-74
2022/05/01 01:24:05;;;;;;;;;;;;;;;12.43;48.92;101337.88;4964162;28;8362;-74
2022/05/01 01:26:36;;;;;;;;;;;;;;;12.40;48.69;101325.72;4983082;28;7635;-74
2022/05/01 01:31:40;;;;;;;;;;;;;;;12.38;49.35;101327.31;4996049;28;6812;-74
2022/05/01 01:31:50;;;;;;;;;;;;;;;12.39;49.16;101329.09;4972134;28;6828;-74
2022/05/01 01:34:21;;;;;;;;;;;;;;;12.41;49.45;101329.19;4981865;28;6965;-74
2022/05/01 01:36:48;;;;;;;;;;;;;;;12.42;49.66;101333.53;4974308;28;7102;-74
2022/05/01 01:39:18;;;;;;;;;;;;;;;12.46;49.24;101332.91;4965542;28;7213;-74
2022/05/01 01:41:46;;;;;;;;;;;;;;;12.48;49.95;101332.19;4977207;28;6828;-74
2022/05/01 01:44:13;;;;;;;;;;;;;;;12.52;49.86;101335.81;4972977;28;6807;-74
2022/05/01 01:46:41;;;;;;;;;;;;;;;12.55;49.68;101330.81;4978584;28;7046;-74
2022/05/01 01:49:10;;;;;;;;;;;;;;;12.59;49.43;101332.78;4977070;28;6884;-74
2022/05/01 01:51:37;;;;;;;;;;;;;;;12.63;49.43;101334.69;4982349;28;6911;-74
2022/05/01 01:54:04;;;;;;;;;;;;;;;12.68;50.13;101326.38;4965024;28;7079;-74
2022/05/01 01:56:30;;;;;;;;;;;;;;;12.72;49.21;101326.63;4995434;28;6811;-74
2022/05/01 01:58:55;;;;;;;;;;;;;;;12.76;49.58;101325.97;4986944;28;6807;-74
2022/05/01 02:01:21;;;;;;;;;;;;;;;12.81;49.98;101331.34;4984167;28;6988;-74
2022/05/01 02:03:47;;;;;;;;;;;;;;;12.86;49.71;101329.94;4987189;28;7856;-74
2022/05/01 02:06:14;;;;;;;;;;;;;;;12.89;49.34;101332.66;4986355;28;6910;-74
2022/05/01 02:08:42;;;;;;;;;;;;;;;12.92;50.16;101327.66;4986855;28;6816;-74
2022/05/01 02:11:10;;;;;;;;;;;;;;;12.97;49.31;101325.34;4984245;28;6835;-74
2022/05/01 02:13:37;;;;;;;;;;;;;;;12.99;49.61;101325.44;4948581;28;7237;-74
2022/05/01 02:16:03;;;;;;;;;;;;;;;13.02;49.12;101320.44;4987264;28;6807;-74
2022/05/01 02:18:29;;;;;;;;;;;;;;;13.03;49.84;101323.09;4972509;28;6883;-74
2022/05/01 02:23:38;;;;;;;;;;;;;;;13.03;49.18;101314.47;4988127;28;7085;-74
2022/05/01 02:26:04;;;;;;;;;;;;;;;13.03;49.93;101317.97;4984020;28;6969;-74
2022/05/01 02:28:30;;;;;;;;;;;;;;;13.03;49.34;101304.19;5002249;28;6944;-74
2022/05/01 02:30:55;;;;;;;;;;;;;;;13.04;49.40;101313.72;4966670;28;6796;-74
2022/05/01 02:33:21;;;;;;;;;;;;;;;13.05;49.89;101310.31;4985743;28;6796;-74
2022/05/01 02:35:48;;;;;;;;;;;;;;;13.05;49.68;101303.47;4980516;28;6878;-74
2022/05/01 02:38:13;;;;;;;;;;;;;;;13.05;49.00;101300.91;4985406;28;7753;-74
2022/05/01 02:40:39;;;;;;;;;;;;;;;13.06;50.09;101304.38;4963523;28;7210;-74
2022/05/01 02:43:05;;;;;;;;;;;;;;;13.04;49.94;101293.13;4971579;28;6779;-74
2022/05/01 02:45:32;;;;;;;;;;;;;;;13.05;50.06;101294.88;4982143;28;6808;-74
2022/05/01 02:47:58;;;;;;;;;;;;;;;13.05;50.17;101297.47;4982169;28;6803;-74
2022/05/01 02:50:24;;;;;;;;;;;;;;;13.04;50.24;101296.56;5001821;28;6803;-74
2022/05/01 02:52:54;;;;;;;;;;;;;;;13.05;50.01;101302.59;4987780;28;6807;-74
2022/05/01 02:55:20;;;;;;;;;;;;;;;13.04;49.50;101296.56;4977846;28;6820;-74
2022/05/01 02:57:47;;;;;;;;;;;;;;;13.04;50.41;101295.69;4996635;28;6807;-74
2022/05/01 03:00:17;;;;;;;;;;;;;;;13.02;49.49;101294.69;4982929;28;7157;-74
2022/05/01 03:02:45;;;;;;;;;;;;;;;13.01;49.83;101290.38;4983660;28;6974;-74
2022/05/01 03:05:10;;;;;;;;;;;;;;;13.00;49.60;101289.50;4985710;28;7212;-74
2022/05/01 03:07:36;;;;;;;;;;;;;;;12.99;50.10;101287.72;4983557;28;6882;-74
2022/05/01 03:10:02;;;;;;;;;;;;;;;12.99;50.50;101290.31;4981000;28;7149;-74
2022/05/01 03:12:29;;;;;;;;;;;;;;;13.00;50.22;101286.03;4973135;28;6871;-74
2022/05/01 03:14:57;;;;;;;;;;;;;;;12.99;50.72;101282.59;4986249;28;6895;-74
2022/05/01 03:17:23;;;;;;;;;;;;;;;13.00;49.93;101286.03;4987801;28;6815;-74
2022/05/01 03:22:33;;;;;;;;;;;;;;;13.02;50.18;101284.41;4972799;28;6880;-75
2022/05/01 03:24:59;;;;;;;;;;;;;;;13.00;50.23;101281.78;4976845;28;7411;-74
2022/05/01 03:27:24;;;;;;;;;;;;;;;13.00;50.47;101283.44;4983573;28;6823;-74
2022/05/01 03:32:35;;;;;;;;;;;;;;;12.91;50.37;101273.56;4986726;28;7277;-74
2022/05/01 03:35:02;;;;;;;;;;;;;;;12.91;50.73;101274.44;4983740;28;6816;-75
2022/05/01 03:37:29;;;;;;;;;;;;;;;12.90;50.86;101280.41;4967811;28;6803;-75
2022/05/01 03:39:55;;;;;;;;;;;;;;;12.89;50.48;101277.72;4976753;28;6987;-74
2022/05/01 03:42:20;;;;;;;;;;;;;;;12.87;50.83;101276.78;4976411;28;6808;-74
2022/05/01 03:44:46;;;;;;;;;;;;;;;12.85;51.37;101276.72;4982125;28;6800;-74
2022/05/01 03:47:12;;;;;;;;;;;;;;;12.87;50.67;101272.53;4986163;28;8598;-74
2022/05/01 03:49:37;;;;;;;;;;;;;;;12.90;50.82;101270.09;4984635;28;8641;-75
2022/05/01 03:52:03;;;;;;;;;;;;;;;12.91;51.11;101271.88;4984382;28;7861;-75
2022/05/01 03:54:29;;;;;;;;;;;;;;;12.90;50.38;101264.97;4962653;28;7374;-75
2022/05/01 03:56:55;;;;;;;;;;;;;;;12.91;50.64;101265.84;4979906;28;6832;-75
2022/05/01 03:59:20;;;;;;;;;;;;;;;12.89;50.36;101263.19;4966135;28;6772;-75
2022/05/01 04:01:46;;;;;;;;;;;;;;;12.88;50.57;101270.81;4980407;28;6903;-75
2022/05/01 04:04:12;;;;;;;;;;;;;;;12.84;51.00;101263.75;4996090;28;8134;-75
2022/05/01 04:06:37;;;;;;;;;;;;;;;12.82;50.47;101266.25;4985630;28;6799;-75
2022/05/01 04:09:03;;;;;;;;;;;;;;;12.79;50.84;101263.53;4976900;28;6783;-75
2022/05/01 04:11:29;;;;;;;;;;;;;;;12.80;51.30;101267.84;4963374;28;6891;-74
2022/05/01 04:13:55;;;;;;;;;;;;;;;12.78;51.45;101262.63;4985339;28;6799;-74
2022/05/01 04:16:20;;;;;;;;;;;;;;;12.79;51.57;101260.94;4980831;28;6807;-74
2022/05/01 04:18:46;;;;;;;;;;;;;;;12.81;51.49;101266.19;4983066;28;6784;-74
2022/05/01 04:21:13;;;;;;;;;;;;;;;12.82;51.35;101271.38;4982812;28;7473;-74
2022/05/01 04:23:39;;;;;;;;;;;;;;;12.81;51.57;101269.63;4983398;28;7719;-74
2022/05/01 04:26:05;;;;;;;;;;;;;;;12.80;51.33;101273.00;4998514;28;6812;-74
2022/05/01 04:28:31;;;;;;;;;;;;;;;12.75;51.79;101283.03;4984466;28;6779;-74
2022/05/01 04:30:57;;;;;;;;;;;;;;;12.72;51.31;101280.31;4965465;28;7232;-74
2022/05/01 04:33:22;;;;;;;;;;;;;;;12.73;51.48;101276.94;4968990;28;7307;-74
2022/05/01 04:35:50;;;;;;;;;;;;;;;12.76;51.70;101281.38;4986607;28;7026;-74
2022/05/01 04:38:21;;;;;;;;;;;;;;;12.80;52.01;101283.28;4980834;28;6804;-74
2022/05/01 04:40:53;;;;;;;;;;;;;;;12.84;52.27;101274.91;4961506;28;6800;-74
2022/05/01 04:43:27;;;;;;;;;;;;;;;12.89;52.01;101273.47;4972408;28;6792;-74
2022/05/01 04:45:56;;;;;;;;;;;;;;;12.90;51.46;101275.25;4981828;28;7251;-74
2022/05/01 04:48:25;;;;;;;;;;;;;;;12.88;52.34;101276.88;4978475;28;6820;-74
2022/05/01 04:50:51;;;;;;;;;;;;;;;12.86;51.87;101291.34;4980303;28;10450;-74
2022/05/01 04:53:22;;;;;;;;;;;;;;;12.84;51.49;101269.78;4963302;28;6808;-74
2022/05/01 04:55:49;;;;;;;;;;;;;;;12.88;52.11;101281.13;4977986;28;7612;-74
2022/05/01 04:58:16;;;;;;;;;;;;;;;12.92;51.86;101275.34;4980132;28;6812;-74
2022/05/01 05:00:44;;;;;;;;;;;;;;;12.99;52.35;101282.59;4992042;28;6804;-74
2022/05/01 05:03:10;;;;;;;;;;;;;;;13.08;51.79;101279.59;4979344;28;6807;-74
2022/05/01 05:05:36;;;;;;;;;;;;;;;13.15;52.52;101273.97;4972152;28;6804;-74
2022/05/01 05:10:49;;;;;;;;;;;;;;;13.30;51.82;101278.13;4977837;28;6819;-74
2022/05/01 05:13:23;;;;;;;;;;;;;;;13.37;52.16;101285.34;4980941;28;6883;-74
2022/05/01 05:15:50;;;;;;;;;;;;;;;13.41;51.71;101284.69;4992710;28;6807;-74
2022/05/01 05:18:16;;;;;;;;;;;;;;;13.45;52.38;101291.81;4980003;28;6982;-74
2022/05/01 05:20:42;;;;;;;;;;;;;;;13.50;51.95;101281.75;4979901;28;6827;-74
2022/05/01 05:23:08;;;;;;;;;;;;;;;13.58;51.46;101283.00;4970214;28;6951;-74
2022/05/01 05:25:34;;;;;;;;;;;;;;;13.69;51.70;101287.81;4980471;28;6879;-74
2022/05/01 05:27:59;;;;;;;;;;;;;;;13.79;51.64;101294.28;4983518;28;7194;-74
2022/05/01 05:30:25;;;;;;;;;;;;;;;13.90;51.58;101295.69;4974507;28;6863;-74
2022/05/01 05:32:51;;;;;;;;;;;;;;;13.97;51.47;101297.75;4980274;28;7216;-74
2022/05/01 05:35:16;;;;;;;;;;;;;;;13.99;50.78;101285.81;4978126;28;6811;-74
2022/05/01 05:37:42;;;;;;;;;;;;;;;14.03;50.90;101285.19;4972216;28;6780;-74
2022/05/01 05:40:09;;;;;;;;;;;;;;;14.07;50.88;101299.09;4976649;28;6780;-74
2022/05/01 05:42:34;;;;;;;;;;;;;;;14.11;51.57;101288.13;4969877;28;7342;-74
2022/05/01 05:45:00;;;;;;;;;;;;;;;14.22;51.52;101287.72;4967375;28;8509;-74
2022/05/01 05:47:26;;;;;;;;;;;;;;;14.31;50.52;101288.16;4969892;28;6808;-74
2022/05/01 05:49:52;;;;;;;;;;;;;;;14.38;50.98;101286.75;4975961;28;6930;-74
2022/05/01 05:52:18;;;;;;;;;;;;;;;14.46;51.11;101292.28;4975939;28;6871;-74
2022/05/01 05:54:43;;;;;;;;;;;;;;;14.51;50.86;101290.78;4961485;28;6846;-74
2022/05/01 05:57:09;;;;;;;;;;;;;;;14.56;50.38;101297.94;4975556;28;6819;-74
2022/05/01 05:59:35;;;;;;;;;;;;;;;14.60;50.60;101298.09;4981037;28;6883;-74
2022/05/01 06:02:03;;;;;;;;;;;;;;;14.67;50.08;101302.69;4980840;28;6891;-74
2022/05/01 06:04:29;;;;;;;;;;;;;;;14.77;50.28;101302.31;4979856;28;7185;-74
2022/05/01 06:06:54;;;;;;;;;;;;;;;14.90;50.04;101300.31;4984087;28;6803;-74
2022/05/01 06:09:20;;;;;;;;;;;;;;;14.99;49.44;101300.72;4973488;28;8295;-74
2022/05/01 06:11:46;;;;;;;;;;;;;;;15.06;49.25;101291.56;4976151;28;6788;-74
2022/05/01 06:14:11;;;;;;;;;;;;;;;15.11;49.19;101295.19;4980779;28;6823;-75
2022/05/01 06:16:38;;;;;;;;;;;;;;;15.14;48.94;101301.38;4975938;28;8223;-74
2022/05/01 06:19:04;;;;;;;;;;;;;;;15.18;49.16;101306.69;4969099;28;6859;-74
2022/05/01 06:21:29;;;;;;;;;;;;;;;15.23;49.37;101313.84;4977618;28;6791;-74
2022/05/01 06:23:55;;;;;;;;;;;;;;;15.27;49.14;101309.69;4982290;28;6875;-74
2022/05/01 06:26:21;;;;;;;;;;;;;;;15.30;48.89;101302.06;4980904;28;6781;-74
2022/05/01 06:28:47;;;;;;;;;;;;;;;15.32;48.57;101304.72;4977708;28;7844;-74
2022/05/01 06:31:15;;;;;;;;;;;;;;;15.33;48.44;101306.47;4982355;28;6836;-75
2022/05/01 06:33:43;;;;;;;;;;;;;;;15.36;48.35;101311.75;4984571;28;6828;-75
2022/05/01 06:36:09;;;;;;;;;;;;;;;15.40;48.61;101304.22;4959500;28;7130;-75
2022/05/01 06:38:35;;;;;;;;;;;;;;;15.47;49.24;101302.78;4957418;28;6871;-75
2022/05/01 06:41:05;;;;;;;;;;;;;;;15.54;48.87;101301.31;4980934;28;6827;-75
2022/05/01 06:43:31;;;;;;;;;;;;;;;15.57;48.58;101298.88;4980582;28;7184;-75
2022/05/01 06:45:58;;;;;;;;;;;;;;;15.65;48.08;101304.38;4981716;28;6856;-75
2022/05/01 06:48:24;;;;;;;;;;;;;;;15.65;47.59;101302.69;4985743;28;6883;-75
2022/05/01 06:50:49;;;;;;;;;;;;;;;15.66;47.62;101304.44;4950244;28;7226;-75
2022/05/01 06:53:15;;;;;;;;;;;;;;;15.70;48.07;101300.28;4980595;28;6868;-74
2022/05/01 06:55:42;;;;;;;;;;;;;;;15.78;47.97;101305.75;4962575;28;6784;-74
2022/05/01 06:58:08;;;;;;;;;;;;;;;15.81;47.37;101300.69;4981278;28;6943;-74
2022/05/01 07:00:34;;;;;;;;;;;;;;;15.86;47.37;101301.78;4977644;28;7199;-74
2022/05/01 07:03:00;;;;;;;;;;;;;;;15.92;48.19;101304.63;4983950;28;6991;-74
2022/05/01 07:05:26;;;;;;;;;;;;;;;16.02;47.73;101307.59;4985662;28;7236;-74
2022/05/01 07:07:54;;;;;;;;;;;;;;;16.10;47.57;101306.19;4981521;28;6788;-74
2022/05/01 07:10:22;;;;;;;;;;;;;;;16.16;47.16;101306.47;4982515;28;7397;-74
2022/05/01 07:12:48;;;;;;;;;;;;;;;16.21;47.32;101312.69;4986793;28;6992;-74
2022/05/01 07:15:14;;;;;;;;;;;;;;;16.25;47.07;101313.69;4984738;28;6791;-74
2022/05/01 07:17:40;;;;;;;;;;;;;;;16.25;47.12;101311.09;4987120;28;6812;-74
2022/05/01 07:20:08;;;;;;;;;;;;;;;16.27;46.71;101311.16;5002761;28;7171;-74
2022/05/01 07:22:33;;;;;;;;;;;;;;;16.32;46.83;101309.63;4968389;28;6808;-74
2022/05/01 07:24:59;;;;;;;;;;;;;;;16.39;46.46;101309.03;4982902;28;6891;-74
2022/05/01 07:27:25;;;;;;;;;;;;;;;16.44;46.78;101310.13;4983597;28;6815;-74
2022/05/01 07:29:50;;;;;;;;;;;;;;;16.49;46.59;101305.97;4984081;28;6783;-74
2022/05/01 07:32:16;;;;;;;;;;;;;;;16.54;46.89;101313.94;4979660;28;7638;-74
2022/05/01 07:34:42;;;;;;;;;;;;;;;16.55;46.08;101309.66;4986640;28;6875;-74
2022/05/01 07:37:08;;;;;;;;;;;;;;;16.57;46.41;101318.34;4965270;28;8096;-74
2022/05/01 07:39:33;;;;;;;;;;;;;;;16.62;46.47;101314.25;5002849;28;6764;-74
2022/05/01 07:41:59;;;;;;;;;;;;;;;16.68;46.37;101323.94;4996425;28;6839;-74
2022/05/01 07:44:25;;;;;;;;;;;;;;;16.70;45.86;101322.28;4983760;28;8189;-74
2022/05/01 07:46:54;;;;;;;;;;;;;;;16.72;46.12;101316.34;4983642;28;6783;-74
2022/05/01 07:49:20;;;;;;;;;;;;;;;16.77;45.96;101313.94;4985424;28;6980;-75
2022/05/01 07:51:46;;;;;;;;;;;;;;;16.78;45.25;101313.09;4983369;28;6811;-75
2022/05/01 07:54:12;;;;;;;;;;;;;;;16.76;45.55;101307.00;4982567;28;7144;-75
2022/05/01 07:56:38;;;;;;;;;;;;;;;16.78;45.42;101316.56;4979944;28;6942;-75
2022/05/01 07:59:04;;;;;;;;;;;;;;;16.87;46.05;101315.13;4969743;28;6963;-75
2022/05/01 08:01:30;;;;;;;;;;;;;;;17.01;45.56;101310.50;4983554;28;6799;-76
2022/05/01 08:06:40;;;;;;;;;;;;;;;17.27;45.72;101307.94;4985980;28;6978;-74
2022/05/01 08:09:07;;;;;;;;;;;;;;;17.37;44.94;101304.84;4960300;28;7247;-75
2022/05/01 08:11:33;;;;;;;;;;;;;;;17.48;45.07;101315.59;4954198;28;7052;-75
2022/05/01 08:13:59;;;;;;;;;;;;;;;17.54;45.06;101304.56;4974281;28;6899;-75
2022/05/01 08:16:25;;;;;;;;;;;;;;;17.56;44.50;101297.72;4977846;28;6780;-75
2022/05/01 08:21:36;;;;;;;;;;;;;;;17.60;44.53;101300.44;4983623;28;7330;-75
2022/05/01 08:24:05;;;;;;;;;;;;;;;17.68;44.22;101308.47;4977064;28;6892;-75
2022/05/01 08:26:34;;;;;;;;;;;;;;;17.75;43.79;101299.19;4985334;28;6812;-75
2022/05/01 08:29:00;;;;;;;;;;;;;;;17.83;44.22;101302.91;4983559;28;6808;-75
2022/05/01 08:31:27;;;;;;;;;;;;;;;17.92;43.39;101299.75;4966705;28;7170;-75
2022/05/01 08:33:54;;;;;;;;;;;;;;;18.01;43.62;101310.41;4962565;28;6808;-75
2022/05/01 08:36:20;;;;;;;;;;;;;;;18.17;43.30;101301.44;4981190;28;6999;-75
2022/05/01 08:38:46;;;;;;;;;;;;;;;18.31;42.88;101301.88;4971200;28;6776;-74
2022/05/01 08:41:12;;;;;;;;;;;;;;;18.46;42.73;101309.22;4981308;28;6812;-74
2022/05/01 08:43:38;;;;;;;;;;;;;;;18.64;42.07;101301.94;4985158;28;6796;-74
2022/05/01 08:46:26;;;;;;;;;;;;;;;18.78;42.08;101307.53;4982025;28;6871;-75
2022/05/01 08:49:06;;;;;;;;;;;;;;;18.81;41.06;101305.91;4983545;28;6812;-74
2022/05/01 08:51:41;;;;;;;;;;;;;;;18.77;41.04;101297.97;4976948;28;7427;-75
2022/05/01 08:54:09;;;;;;;;;;;;;;;18.81;41.22;101307.59;4980327;28;7903;-75
2022/05/01 08:56:38;;;;;;;;;;;;;;;18.88;40.58;101299.16;4962428;28;6804;-75
2022/05/01 08:59:10;;;;;;;;;;;;;;;18.91;40.27;101298.38;4974255;28;6816;-74
2022/05/01 09:01:38;;;;;;;;;;;;;;;18.91;40.34;101294.03;4953257;28;7759;-75
2022/05/01 09:04:06;;;;;;;;;;;;;;;18.98;40.67;101298.56;4964557;28;6978;-75
2022/05/01 09:06:37;;;;;;;;;;;;;;;19.11;40.36;101297.22;4963257;28;6812;-75
2022/05/01 09:09:15;;;;;;;;;;;;;;;19.26;39.99;101303.66;4978283;28;6839;-75
2022/05/01 09:14:27;;;;;;;;;;;;;;;19.36;39.84;101302.19;4983547;28;6828;-75
2022/05/01 09:17:21;;;;;;;;;;;;;;;19.51;39.72;101305.19;4983157;28;7014;-75
2022/05/01 09:20:03;;;;;;;;;;;;;;;19.71;38.81;101299.63;4960800;28;6988;-75
2022/05/01 09:22:54;;;;;;;;;;;;;;;19.87;38.51;101302.56;4981988;28;6824;-75
2022/05/01 09:25:22;;;;;;;;;;;;;;;19.92;37.85;101304.44;4984035;28;6792;-75
2022/05/01 09:27:51;;;;;;;;;;;;;;;19.93;37.76;101306.22;4983136;28;6804;-75
2022/05/01 09:30:22;;;;;;;;;;;;;;;19.95;37.66;101309.78;4997510;28;6815;-74
2022/05/01 09:32:49;;;;;;;;;;;;;;;19.94;37.34;101307.13;4973528;28;6816;-74
2022/05/01 09:35:35;;;;;;;;;;;;;;;19.98;37.42;101308.94;4979358;28;6788;-75
2022/05/01 09:38:19;;;;;;;;;;;;;;;19.96;37.52;101308.03;4979924;28;6872;-75
2022/05/01 09:40:50;;;;;;;;;;;;;;;19.92;37.01;101306.19;4978684;28;6970;-75
2022/05/01 09:43:37;;;;;;;;;;;;;;;19.98;36.97;101311.53;4978355;28;6884;-75
2022/05/01 09:46:25;;;;;;;;;;;;;;;20.10;37.31;101309.25;4957646;28;7025;-75
2022/05/01 09:49:05;;;;;;;;;;;;;;;20.17;36.37;101305.06;4979490;28;6888;-75
2022/05/01 09:51:33;;;;;;;;;;;;;;;20.23;36.21;101304.31;4964735;28;7091;-75
2022/05/01 09:54:02;;;;;;;;;;;;;;;20.28;36.13;101304.41;4981555;28;6804;-75
2022/05/01 09:56:41;;;;;;;;;;;;;;;20.32;35.87;101299.31;4978880;28;7194;-75
2022/05/01 09:59:07;;;;;;;;;;;;;;;20.48;36.10;101297.91;4983644;28;6962;-75
2022/05/01 10:01:33;;;;;;;;;;;;;;;20.61;35.74;101299.06;4976630;28;6811;-75
2022/05/01 10:04:02;;;;;;;;;;;;;;;20.67;35.55;101300.91;4980937;28;7042;-76
2022/05/01 10:06:32;;;;;;;;;;;;;;;20.70;35.30;101300.09;4976857;28;7196;-75
2022/05/01 10:09:01;;;;;;;;;;;;;;;20.74;35.34;101297.59;4981167;28;6962;-75
2022/05/01 10:11:29;;;;;;;;;;;;;;;20.78;35.17;101294.19;4984720;28;7174;-75
2022/05/01 10:13:56;;;;;;;;;;;;;;;20.74;34.87;101307.13;4983754;28;6879;-75
2022/05/01 10:16:21;;;;;;;;;;;;;;;20.59;34.50;101299.88;4964331;28;7021;-75
2022/05/01 10:18:48;;;;;;;;;;;;;;;20.44;34.56;101287.41;4983574;28;7357;-75
2022/05/01 10:21:13;;;;;;;;;;;;;;;20.37;34.86;101296.81;4965564;28;7019;-75
2022/05/01 10:23:40;;;;;;;;;;;;;;;20.33;34.60;101295.88;4986916;28;6815;-75
2022/05/01 10:26:28;;;;;;;;;;;;;;;20.32;34.97;101299.31;4985049;28;6803;-75
2022/05/01 10:29:26;;;;;;;;;;;;;;;20.31;34.57;101292.34;4983490;28;6823;-74
2022/05/01 10:32:30;;;;;;;;;;;;;;;20.26;34.67;101291.34;4982234;28;7581;-74
2022/05/01 10:35:53;;;;;;;;;;;;;;;20.16;34.61;101292.00;4977172;28;6824;-74
2022/05/01 10:38:43;;;;;;;;;;;;;;;20.12;33.98;101284.13;4987711;28;6824;-74
2022/05/01 10:41:11;;;;;;;;;;;;;;;20.16;34.77;101286.78;4985229;28;6835;-74
2022/05/01 10:43:38;;;;;;;;;;;;;;;20.12;33.87;101291.03;4986411;28;6983;-74
2022/05/01 10:46:28;;;;;;;;;;;;;;;20.01;34.09;101283.00;4968341;28;6804;-74
2022/05/01 10:48:58;;;;;;;;;;;;;;;19.95;34.16;101278.56;4969011;28;8507;-74
2022/05/01 10:51:38;;;;;;;;;;;;;;;20.03;34.80;101277.81;4968568;28;6854;-74
2022/05/01 10:54:09;;;;;;;;;;;;;;;20.14;35.06;101268.56;4982415;28;6804;-74
2022/05/01 10:56:37;;;;;;;;;;;;;;;20.33;34.97;101268.94;4996385;28;6990;-74
2022/05/01 10:59:33;;;;;;;;;;;;;;;20.59;34.14;101263.41;4966146;28;6986;-74
2022/05/01 11:02:03;;;;;;;;;;;;;;;20.87;34.75;101262.28;4957449;28;6993;-74
2022/05/01 11:04:38;;;;;;;;;;;;;;;21.19;34.01;101255.88;4964336;28;7233;-74
2022/05/01 11:07:05;;;;;;;;;;;;;;;21.43;33.52;101252.81;4986999;28;6816;-74
2022/05/01 11:09:35;;;;;;;;;;;;;;;21.69;33.37;101244.56;4978803;28;6808;-75
2022/05/01 11:12:01;;;;;;;;;;;;;;;21.90;33.30;101246.63;4960111;28;6805;-75
2022/05/01 11:14:39;;;;;;;;;;;;;;;22.08;32.71;101241.63;4974068;28;7027;-75
2022/05/01 11:17:07;;;;;;;;;;;;;;;22.13;32.21;101242.59;4981221;28;6788;-75
2022/05/01 11:19:50;;;;;;;;;;;;;;;22.15;31.41;101233.91;4983590;28;7082;-75
2022/05/01 11:22:27;;;;;;;;;;;;;;;22.15;31.51;101235.66;4981844;28;6832;-74
2022/05/01 11:24:53;;;;;;;;;;;;;;;22.16;31.13;101240.91;4969425;28;7292;-74
2022/05/01 11:27:21;;;;;;;;;;;;;;;22.16;30.88;101234.78;4980411;28;6804;-74
2022/05/01 11:30:22;;;;;;;;;;;;;;;22.25;30.97;101240.13;4966126;28;6991;-74
2022/05/01 11:33:00;;;;;;;;;;;;;;;22.52;30.65;101230.94;4966078;28;6989;-74
2022/05/01 11:35:57;;;;;;;;;;;;;;;22.86;30.46;101228.66;4964794;28;6985;-74
2022/05/01 11:38:33;;;;;;;;;;;;;;;23.24;30.46;101223.78;4987934;28;6884;-74
2022/05/01 11:41:02;;;;;;;;;;;;;;;23.48;29.89;101217.91;4981785;28;7956;-75
2022/05/01 11:43:29;;;;;;;;;;;;;;;23.56;29.33;101215.34;4976864;28;6812;-74
2022/05/01 11:46:01;;;;;;;;;;;;;;;23.52;29.60;101214.47;4980130;28;6808;-74
2022/05/01 11:48:28;;;;;;;;;;;;;;;23.39;29.50;101210.88;4984941;28;7516;-73
2022/05/01 11:50:59;;;;;;;;;;;;;;;23.27;29.23;101210.72;4959754;28;6951;-73
2022/05/01 11:53:27;;;;;;;;;;;;;;;23.13;29.54;101197.53;4983849;28;6884;-73
2022/05/01 12:04:38;;;;;;;;;;;;;;;23.21;29.22;101197.63;4964753;28;8115;-74
2022/05/01 12:07:05;;;;;;;;;;;;;;;23.32;29.13;101192.50;4984179;28;6811;-74
2022/05/01 12:09:38;;;;;;;;;;;;;;;23.44;29.28;101188.22;4986834;28;6982;-74
2022/05/01 12:12:06;;;;;;;;;;;;;;;23.66;29.54;101190.13;4965931;28;6824;-74
2022/05/01 12:14:33;;;;;;;;;;;;;;;23.77;28.66;101184.97;4983998;28;6994;-74
2022/05/01 12:16:59;;;;;;;;;;;;;;;23.74;28.68;101177.06;4982242;28;7482;-74
2022/05/01 12:19:54;;;;;;;;;;;;;;;23.83;29.01;101183.25;4983274;28;6795;-74
2022/05/01 12:22:23;;;;;;;;;;;;;;;24.00;28.36;101172.00;4975385;28;6836;-74
2022/05/01 12:24:49;;;;;;;;;;;;;;;24.24;28.95;101168.63;4985402;28;6974;-74
2022/05/01 12:27:18;;;;;;;;;;;;;;;24.39;28.54;101167.81;4978046;28;6808;-74
2022/05/01 12:29:51;;;;;;;;;;;;;;;24.56;28.33;101164.31;4984671;28;7074;-74
2022/05/01 12:32:17;;;;;;;;;;;;;;;24.90;28.38;101163.53;4978368;28;6815;-74
2022/05/01 12:34:46;;;;;;;;;;;;;;;25.13;28.06;101157.44;4986333;28;6808;-74
2022/05/01 12:37:21;;;;;;;;;;;;;;;25.07;27.14;101151.28;4982166;28;7125;-74
2022/05/01 12:40:07;;;;;;;;;;;;;;;24.73;27.35;101153.91;4984688;28;6803;-74
2022/05/01 12:45:38;;;;;;;;;;;;;;;24.01;27.54;101144.94;4978305;28;7137;-74
2022/05/01 12:48:07;;;;;;;;;;;;;;;23.76;28.21;101154.41;4975704;28;6819;-74
2022/05/01 12:50:38;;;;;;;;;;;;;;;23.54;28.15;101149.06;4975438;28;6823;-74
2022/05/01 12:53:30;;;;;;;;;;;;;;;23.38;28.69;101151.59;4971236;28;6986;-74
2022/05/01 12:55:59;;;;;;;;;;;;;;;23.33;28.58;101148.06;4974359;28;6815;-74
2022/05/01 12:58:30;;;;;;;;;;;;;;;23.39;28.57;101145.50;4977892;28;6994;-73
2022/05/01 13:00:57;;;;;;;;;;;;;;;23.53;28.96;101139.47;4972049;28;7052;-74
2022/05/01 13:03:30;;;;;;;;;;;;;;;23.64;28.88;101139.53;4985724;28;6816;-73
2022/05/01 13:06:01;;;;;;;;;;;;;;;23.72;28.01;101141.31;4979786;28;6815;-73
2022/05/01 13:08:30;;;;;;;;;;;;;;;24.03;28.79;101126.59;4967142;28;7135;-74
2022/05/01 13:11:26;;;;;;;;;;;;;;;24.65;28.74;101118.94;4976662;28;6795;-73
2022/05/01 13:14:06;;;;;;;;;;;;;;;25.31;27.82;101120.69;4979000;28;6828;-74
2022/05/01 13:16:31;;;;;;;;;;;;;;;25.86;27.13;101116.16;4963064;28;7099;-73
2022/05/01 13:19:12;;;;;;;;;;;;;;;26.33;26.97;101113.31;4975457;28;6871;-74
2022/05/01 13:21:51;;;;;;;;;;;;;;;26.80;26.20;101110.34;4971672;28;6827;-73
2022/05/01 13:24:30;;;;;;;;;;;;;;;27.02;25.61;101117.19;4974815;28;7021;-73
2022/05/01 13:27:01;;;;;;;;;;;;;;;27.00;25.60;101110.22;4970222;28;7228;-74
2022/05/01 13:29:32;;;;;;;;;;;;;;;26.88;25.07;101109.41;4979986;28;6954;-74
2022/05/01 13:32:01;;;;;;;;;;;;;;;26.61;25.30;101107.88;4974870;28;6899;-74
2022/05/01 13:34:27;;;;;;;;;;;;;;;26.29;25.47;101103.72;4977836;28;6804;-74